createdAt,value
2023-01-17T00:02:10.618Z,77.96
2023-01-17T00:04:29.141Z,75.82
2023-01-17T00:06:46.178Z,78.51
2023-01-17T00:09:03.197Z,75.59
2023-01-17T00:11:21.142Z,77.86
2023-01-17T00:13:38.558Z,76.11
2023-01-17T00:15:55.758Z,76.80
2023-01-17T00:18:12.734Z,76.78
2023-01-17T00:20:29.846Z,77.12
2023-01-17T00:22:47.157Z,76.75
2023-01-17T00:25:04.147Z,78.86
2023-01-17T00:27:21.190Z,77.20
2023-01-17T00:29:42.286Z,77.44
2023-01-17T00:31:59.363Z,77.85
2023-01-17T00:34:16.707Z,75.41
2023-01-17T00:36:33.805Z,76.05
2023-01-17T00:38:50.896Z,76.32
2023-01-17T00:41:10.752Z,76.93
2023-01-17T00:43:28.654Z,76.06
2023-01-17T00:45:48.877Z,76.93
2023-01-17T00:48:06.104Z,78.15
2023-01-17T00:50:23.254Z,76.77
2023-01-17T00:52:40.330Z,77.12
2023-01-17T00:54:57.400Z,75.99
2023-01-17T00:57:14.310Z,75.72
2023-01-17T00:59:31.746Z,76.20
2023-01-17T01:01:48.906Z,75.44
2023-01-17T01:04:06.032Z,75.92
2023-01-17T01:06:23.015Z,75.94
2023-01-17T01:08:40.183Z,76.10
2023-01-17T01:10:57.448Z,76.19
2023-01-17T01:13:14.696Z,75.52
2023-01-17T01:15:32.792Z,78.03
2023-01-17T01:17:49.740Z,76.78
2023-01-17T01:20:07.258Z,77.66
2023-01-17T01:22:25.248Z,76.74
2023-01-17T01:24:42.501Z,75.43
2023-01-17T01:26:59.607Z,75.79
2023-01-17T01:29:16.898Z,76.99
2023-01-17T01:31:34.310Z,73.85
2023-01-17T01:33:51.242Z,74.92
2023-01-17T01:36:08.580Z,76.73
2023-01-17T01:38:25.979Z,75.20
2023-01-17T01:40:43.033Z,75.46
2023-01-17T01:43:00.061Z,75.64
2023-01-17T01:45:17.199Z,77.63
2023-01-17T01:47:34.241Z,78.52
2023-01-17T01:49:51.512Z,77.18
2023-01-17T01:52:08.553Z,75.90
2023-01-17T01:54:25.561Z,76.10
2023-01-17T01:56:42.986Z,77.55
2023-01-17T01:59:00.240Z,77.20
2023-01-17T02:01:17.611Z,78.04
2023-01-17T02:03:34.692Z,78.06
2023-01-17T02:05:51.843Z,78.03
2023-01-17T02:08:09.137Z,78.28
2023-01-17T02:10:26.493Z,78.55
2023-01-17T02:12:43.796Z,78.54
2023-01-17T02:15:00.737Z,78.33
2023-01-17T02:17:17.723Z,78.49
2023-01-17T02:19:34.742Z,78.75
2023-01-17T02:21:52.091Z,80.16
2023-01-17T02:24:09.125Z,80.69
2023-01-17T02:26:26.181Z,80.02
2023-01-17T02:28:43.259Z,80.70
2023-01-17T02:31:00.472Z,81.44
2023-01-17T02:33:17.774Z,82.80
2023-01-17T02:35:34.847Z,82.01
2023-01-17T02:37:52.771Z,82.80
2023-01-17T02:40:10.041Z,84.28
2023-01-17T02:42:27.107Z,82.08
2023-01-17T02:44:44.196Z,83.28
2023-01-17T02:47:01.234Z,83.63
2023-01-17T02:49:18.552Z,84.25
2023-01-17T02:51:35.476Z,84.63
2023-01-17T02:53:52.315Z,85.62
2023-01-17T02:56:10.882Z,85.36
2023-01-17T02:58:28.313Z,85.77
2023-01-17T03:00:45.720Z,85.69
2023-01-17T03:03:02.842Z,86.65
2023-01-17T03:05:20.422Z,85.94
2023-01-17T03:07:37.573Z,86.04
2023-01-17T03:09:54.862Z,86.23
2023-01-17T03:12:11.888Z,86.32
2023-01-17T03:14:29.089Z,86.33
2023-01-17T03:16:46.396Z,87.02
2023-01-17T03:19:03.421Z,86.93
2023-01-17T03:21:21.374Z,87.91
2023-01-17T03:23:38.309Z,87.48
2023-01-17T03:25:59.269Z,88.05
2023-01-17T03:28:16.383Z,87.18
2023-01-17T03:30:33.368Z,87.06
2023-01-17T03:32:50.330Z,85.70
2023-01-17T03:35:07.227Z,85.24
2023-01-17T03:37:24.474Z,86.13
2023-01-17T03:39:41.449Z,86.23
2023-01-17T03:41:58.682Z,85.93
2023-01-17T03:44:15.737Z,85.80
2023-01-17T03:46:32.753Z,86.58
2023-01-17T03:48:51.008Z,87.41
2023-01-17T03:51:08.247Z,86.53
2023-01-17T03:53:26.503Z,85.83
2023-01-17T03:55:43.498Z,82.93
2023-01-17T03:58:00.548Z,82.33
2023-01-17T04:00:17.469Z,83.74
2023-01-17T04:02:34.432Z,83.70
2023-01-17T04:04:51.364Z,83.43
2023-01-17T04:07:08.383Z,83.03
2023-01-17T04:09:26.365Z,82.25
2023-01-17T04:11:43.886Z,83.42
2023-01-17T04:14:01.143Z,81.80
2023-01-17T04:16:19.216Z,81.84
2023-01-17T04:18:36.153Z,82.54
2023-01-17T04:20:53.232Z,82.54
2023-01-17T04:23:10.227Z,82.78
2023-01-17T04:25:28.198Z,82.71
2023-01-17T04:27:45.206Z,82.68
2023-01-17T04:30:03.548Z,83.00
2023-01-17T04:32:20.631Z,82.93
2023-01-17T04:34:37.631Z,83.16
2023-01-17T04:36:54.677Z,83.77
2023-01-17T04:39:12.018Z,83.01
2023-01-17T04:41:29.214Z,82.58
2023-01-17T04:43:46.196Z,81.56
2023-01-17T04:46:03.275Z,83.44
2023-01-17T04:48:20.354Z,82.24
2023-01-17T04:50:37.401Z,80.85
2023-01-17T04:52:55.587Z,81.98
2023-01-17T04:55:12.523Z,82.71
2023-01-17T04:57:29.850Z,82.80
2023-01-17T04:59:46.903Z,83.07
2023-01-17T05:02:03.989Z,83.07
2023-01-17T05:04:21.110Z,84.23
2023-01-17T05:06:38.476Z,85.17
2023-01-17T05:08:55.741Z,83.51
2023-01-17T05:11:13.330Z,84.75
2023-01-17T05:13:31.509Z,83.54
2023-01-17T05:15:48.816Z,83.51
2023-01-17T05:18:06.061Z,83.19
2023-01-17T05:20:23.316Z,83.78
2023-01-17T05:22:40.356Z,84.92
2023-01-17T05:24:57.416Z,85.54
2023-01-17T05:27:14.455Z,85.85
2023-01-17T05:29:31.459Z,85.83
2023-01-17T05:31:48.440Z,86.50
2023-01-17T05:34:05.535Z,86.31
2023-01-17T05:36:22.472Z,86.23
2023-01-17T05:38:39.427Z,86.22
2023-01-17T05:40:57.440Z,86.06
2023-01-17T05:43:14.394Z,86.63
2023-01-17T05:45:31.338Z,86.76
2023-01-17T05:47:48.327Z,87.41
2023-01-17T05:50:05.241Z,87.36
2023-01-17T05:52:22.113Z,86.58
2023-01-17T05:54:40.298Z,86.59
2023-01-17T05:56:57.411Z,85.81
2023-01-17T05:59:14.523Z,87.34
2023-01-17T06:01:32.109Z,87.79
2023-01-17T06:03:49.292Z,87.60
2023-01-17T06:06:07.552Z,88.07
2023-01-17T06:08:24.569Z,88.37
2023-01-17T06:10:41.647Z,87.71
2023-01-17T06:12:58.915Z,87.69
2023-01-17T06:15:17.073Z,88.57
2023-01-17T06:17:34.109Z,87.89
2023-01-17T06:19:51.447Z,88.33
2023-01-17T06:22:08.482Z,87.93
2023-01-17T06:24:25.463Z,87.37
2023-01-17T06:26:42.648Z,88.14
2023-01-17T06:29:00.983Z,87.57
2023-01-17T06:31:18.080Z,88.18
2023-01-17T06:33:35.360Z,88.07
2023-01-17T06:35:52.284Z,86.44
2023-01-17T06:38:10.571Z,87.25
2023-01-17T06:40:27.596Z,86.57
2023-01-17T06:42:44.627Z,86.57
2023-01-17T06:45:01.635Z,86.99
2023-01-17T06:47:18.872Z,87.25
2023-01-17T06:49:35.867Z,87.40
2023-01-17T06:51:52.863Z,87.22
2023-01-17T06:54:10.184Z,88.47
2023-01-17T06:56:27.532Z,88.79
2023-01-17T06:58:44.469Z,88.60
2023-01-17T07:01:02.381Z,88.27
2023-01-17T07:03:19.679Z,88.24
2023-01-17T07:05:36.616Z,88.16
2023-01-17T07:07:53.698Z,88.07
2023-01-17T07:10:10.721Z,88.48
2023-01-17T07:12:27.717Z,88.33
2023-01-17T07:14:44.996Z,88.64
2023-01-17T07:17:01.849Z,87.79
2023-01-17T07:19:18.882Z,88.06
2023-01-17T07:21:37.147Z,88.21
2023-01-17T07:23:54.464Z,87.58
2023-01-17T07:26:12.500Z,87.77
2023-01-17T07:28:29.523Z,88.13
2023-01-17T07:30:46.791Z,88.00
2023-01-17T07:33:04.095Z,88.65
2023-01-17T07:35:21.319Z,88.33
2023-01-17T07:37:38.213Z,88.75
2023-01-17T07:39:55.494Z,89.60
2023-01-17T07:42:12.569Z,89.79
2023-01-17T07:44:29.844Z,89.65
2023-01-17T07:46:46.914Z,89.41
2023-01-17T07:49:04.289Z,89.70
2023-01-17T07:51:21.483Z,89.53
2023-01-17T07:53:38.643Z,89.15
2023-01-17T07:55:56.729Z,89.36
2023-01-17T07:58:13.681Z,89.26
2023-01-17T08:00:31.761Z,89.46
2023-01-17T08:02:49.054Z,89.31
2023-01-17T08:05:07.360Z,89.44
2023-01-17T08:07:24.575Z,89.35
2023-01-17T08:09:43.167Z,89.35
2023-01-17T08:12:01.440Z,89.32
2023-01-17T08:14:18.741Z,89.76
2023-01-17T08:16:35.851Z,89.69
2023-01-17T08:18:53.229Z,89.96
2023-01-17T08:21:10.299Z,89.91
2023-01-17T08:23:27.205Z,89.80
2023-01-17T08:25:44.210Z,90.07
2023-01-17T08:28:01.378Z,90.16
2023-01-17T08:30:18.732Z,90.66
2023-01-17T08:32:36.033Z,90.55
2023-01-17T08:34:53.206Z,90.93
2023-01-17T08:37:10.249Z,90.99
2023-01-17T08:39:27.517Z,90.89
2023-01-17T08:41:44.458Z,90.62
2023-01-17T08:44:01.534Z,90.35
2023-01-17T08:46:19.277Z,90.59
2023-01-17T08:48:36.324Z,90.78
2023-01-17T08:50:53.398Z,90.73
2023-01-17T08:53:10.469Z,91.04
2023-01-17T08:55:28.493Z,90.29
2023-01-17T08:57:45.447Z,90.23
2023-01-17T09:00:02.746Z,90.38
2023-01-17T09:02:20.035Z,90.46
2023-01-17T09:04:37.446Z,90.17
2023-01-17T09:06:54.747Z,90.81
2023-01-17T09:09:13.009Z,91.14
2023-01-17T09:11:30.068Z,90.70
2023-01-17T09:13:47.149Z,89.55
2023-01-17T09:16:04.410Z,89.48
2023-01-17T09:18:21.788Z,89.01
2023-01-17T09:20:38.743Z,88.22
2023-01-17T09:22:56.006Z,88.84
2023-01-17T09:25:12.992Z,88.92
2023-01-17T09:27:30.061Z,88.82
2023-01-17T09:29:48.431Z,88.19
2023-01-17T09:32:05.592Z,88.93
2023-01-17T09:34:22.815Z,88.72
2023-01-17T09:36:41.071Z,88.21
2023-01-17T09:38:59.601Z,85.97
2023-01-17T09:41:16.929Z,86.00
2023-01-17T09:43:34.315Z,86.49
2023-01-17T09:45:52.458Z,85.60
2023-01-17T09:48:10.613Z,84.29
2023-01-17T09:50:27.961Z,83.69
2023-01-17T09:52:45.250Z,83.63
2023-01-17T09:55:06.124Z,83.39
2023-01-17T09:57:26.235Z,84.00
2023-01-17T09:59:45.677Z,79.46
2023-01-17T10:02:02.974Z,75.44
2023-01-17T10:04:21.417Z,73.95
2023-01-17T10:06:38.802Z,72.93
2023-01-17T10:08:56.242Z,74.20
2023-01-17T10:11:13.707Z,73.69
2023-01-17T10:13:30.832Z,72.98
2023-01-17T10:15:48.086Z,73.28
2023-01-17T10:18:05.442Z,75.19
2023-01-17T10:20:22.788Z,75.16
2023-01-17T10:22:39.713Z,76.05
2023-01-17T10:24:59.775Z,74.80
2023-01-17T10:27:17.071Z,73.94
2023-01-17T10:29:35.143Z,75.01
2023-01-17T10:31:52.441Z,74.77
2023-01-17T10:34:09.692Z,75.00
2023-01-17T10:36:27.741Z,74.99
2023-01-17T10:38:44.745Z,76.07
2023-01-17T10:41:01.819Z,76.58
2023-01-17T10:43:19.916Z,77.71
2023-01-17T10:45:37.252Z,77.20
2023-01-17T10:47:54.640Z,77.45
2023-01-17T10:50:12.714Z,75.65
2023-01-17T10:52:29.812Z,77.31
2023-01-17T10:54:50.583Z,77.10
2023-01-17T10:57:08.074Z,77.59
2023-01-17T10:59:25.131Z,77.08
2023-01-17T11:01:42.296Z,77.44
2023-01-17T11:03:59.664Z,76.19
2023-01-17T11:06:20.677Z,75.66
2023-01-17T11:08:39.828Z,75.02
2023-01-17T11:10:56.755Z,74.70
2023-01-17T11:13:14.170Z,76.78
2023-01-17T11:15:31.476Z,76.33
2023-01-17T11:17:48.450Z,74.23
2023-01-17T11:20:05.377Z,75.49
2023-01-17T11:22:22.681Z,74.07
2023-01-17T11:24:39.979Z,75.52
2023-01-17T11:26:57.218Z,74.45
2023-01-17T11:29:14.080Z,72.79
2023-01-17T11:31:31.491Z,74.79
2023-01-17T11:33:48.745Z,74.78
2023-01-17T11:36:05.855Z,75.15
2023-01-17T11:38:23.211Z,74.37
2023-01-17T11:40:40.464Z,75.86
2023-01-17T11:42:57.575Z,74.63
2023-01-17T11:45:14.863Z,74.08
2023-01-17T11:47:31.933Z,75.52
2023-01-17T11:49:49.255Z,74.81
2023-01-17T11:52:06.255Z,74.27
2023-01-17T11:54:25.882Z,73.89
2023-01-17T11:56:43.469Z,73.83
2023-01-17T11:59:00.537Z,73.36
2023-01-17T12:01:17.551Z,72.07
2023-01-17T12:03:35.663Z,73.22
2023-01-17T12:05:52.689Z,73.52
2023-01-17T12:08:10.039Z,73.17
2023-01-17T12:10:26.971Z,74.17
2023-01-17T12:12:44.996Z,73.86
2023-01-17T12:15:02.061Z,73.49
2023-01-17T12:17:19.402Z,73.48
2023-01-17T12:19:36.375Z,73.54
2023-01-17T12:21:54.768Z,73.25
2023-01-17T12:24:11.820Z,73.45
2023-01-17T12:26:28.739Z,72.09
2023-01-17T12:28:45.859Z,74.22
2023-01-17T12:31:02.943Z,73.68
2023-01-17T12:33:20.116Z,73.90
2023-01-17T12:35:37.024Z,73.24
2023-01-17T12:38:04.448Z,73.57
2023-01-17T12:40:22.074Z,75.08
2023-01-17T12:42:39.250Z,74.56
2023-01-17T12:44:57.566Z,73.81
2023-01-17T12:47:14.518Z,73.61
2023-01-17T12:49:32.399Z,72.91
2023-01-17T12:51:49.703Z,72.18
2023-01-17T12:54:06.847Z,73.23
2023-01-17T12:56:23.841Z,72.49
2023-01-17T12:58:40.861Z,72.86
2023-01-17T13:00:58.225Z,72.53
2023-01-17T13:03:16.696Z,71.73
2023-01-17T13:05:33.905Z,71.41
2023-01-17T13:07:52.229Z,71.37
2023-01-17T13:10:09.219Z,71.16
2023-01-17T13:12:26.334Z,70.24
2023-01-17T13:14:44.267Z,69.55
2023-01-17T13:17:01.246Z,70.17
2023-01-17T13:19:18.233Z,70.98
2023-01-17T13:21:35.506Z,69.92
2023-01-17T13:23:52.801Z,68.53
2023-01-17T13:26:09.880Z,69.36
2023-01-17T13:28:26.901Z,69.73
2023-01-17T13:30:44.203Z,68.62
2023-01-17T13:33:02.285Z,69.83
2023-01-17T13:35:19.317Z,68.03
2023-01-17T13:37:36.614Z,67.92
2023-01-17T13:39:54.590Z,67.47
2023-01-17T13:42:11.619Z,68.14
2023-01-17T13:44:28.706Z,68.36
2023-01-17T13:46:45.659Z,69.13
2023-01-17T13:49:03.054Z,70.06
2023-01-17T13:51:20.050Z,69.45
2023-01-17T13:53:37.171Z,68.10
2023-01-17T13:55:54.417Z,69.68
2023-01-17T13:58:11.618Z,68.73
2023-01-17T14:00:28.654Z,69.54
2023-01-17T14:02:48.273Z,68.25
2023-01-17T14:05:05.246Z,68.12
2023-01-17T14:07:22.315Z,68.77
2023-01-17T14:09:39.357Z,68.57
2023-01-17T14:11:56.403Z,69.79
2023-01-17T14:14:13.732Z,68.40
2023-01-17T14:16:30.934Z,70.11
2023-01-17T14:18:48.079Z,70.34
2023-01-17T14:21:05.206Z,69.65
2023-01-17T14:23:22.328Z,69.47
2023-01-17T14:25:39.362Z,67.84
2023-01-17T14:27:59.570Z,68.13
2023-01-17T14:30:17.027Z,67.30
2023-01-17T14:32:34.130Z,67.26
2023-01-17T14:34:51.513Z,68.65
2023-01-17T14:37:08.561Z,68.16
2023-01-17T14:39:25.624Z,66.95
2023-01-17T14:41:42.634Z,67.27
2023-01-17T14:44:00.068Z,69.67
2023-01-17T14:46:17.020Z,69.09
2023-01-17T14:48:34.400Z,68.67
2023-01-17T14:50:51.334Z,70.72
2023-01-17T14:53:08.486Z,69.92
2023-01-17T14:55:25.592Z,70.79
2023-01-17T14:57:42.882Z,71.63
2023-01-17T14:59:59.991Z,71.77
2023-01-17T15:02:17.335Z,72.32
2023-01-17T15:04:34.697Z,70.68
2023-01-17T15:06:51.942Z,73.06
2023-01-17T15:09:09.139Z,73.40
2023-01-17T15:11:26.170Z,73.82
2023-01-17T15:13:45.143Z,74.92
2023-01-17T15:16:02.840Z,74.33
2023-01-17T15:18:21.194Z,75.05
2023-01-17T15:20:38.430Z,76.33
2023-01-17T15:22:55.498Z,77.53
2023-01-17T15:25:16.159Z,77.30
2023-01-17T15:27:33.377Z,78.24
2023-01-17T15:29:51.311Z,79.24
2023-01-17T15:32:09.646Z,78.80
2023-01-17T15:34:26.748Z,78.66
2023-01-17T15:36:44.004Z,78.67
2023-01-17T15:39:01.194Z,79.58
2023-01-17T15:41:18.125Z,80.12
2023-01-17T15:43:35.032Z,80.35
2023-01-17T15:45:53.050Z,80.27
2023-01-17T15:48:10.464Z,80.90
2023-01-17T15:50:27.476Z,80.86
2023-01-17T15:52:45.899Z,81.22
2023-01-17T15:55:04.253Z,80.66
2023-01-17T15:57:22.005Z,81.01
2023-01-17T15:59:39.965Z,80.55
2023-01-17T16:01:57.623Z,80.90
2023-01-17T16:04:14.797Z,80.56
2023-01-17T16:06:32.926Z,80.84
2023-01-17T16:08:50.298Z,81.77
2023-01-17T16:11:07.360Z,81.32
2023-01-17T16:13:25.299Z,81.92
2023-01-17T16:15:42.770Z,81.39
2023-01-17T16:18:00.222Z,82.03
2023-01-17T16:20:18.552Z,82.43
2023-01-17T16:22:35.513Z,82.29
2023-01-17T16:24:52.767Z,82.55
2023-01-17T16:27:09.987Z,82.32
2023-01-17T16:29:28.137Z,83.03
2023-01-17T16:31:45.497Z,82.55
2023-01-17T16:34:03.555Z,83.91
2023-01-17T16:36:20.925Z,82.92
2023-01-17T16:38:38.379Z,83.48
2023-01-17T16:40:55.697Z,83.15
2023-01-17T16:43:13.207Z,83.76
2023-01-17T16:45:30.530Z,84.08
2023-01-17T16:47:48.923Z,83.98
2023-01-17T16:50:06.466Z,84.06
2023-01-17T16:52:24.554Z,84.43
2023-01-17T16:54:41.641Z,84.27
2023-01-17T16:56:58.805Z,84.52
2023-01-17T16:59:15.890Z,84.76
2023-01-17T17:01:33.028Z,84.67
2023-01-17T17:03:49.969Z,85.33
2023-01-17T17:06:06.993Z,85.00
2023-01-17T17:08:24.121Z,85.41
2023-01-17T17:10:41.572Z,85.11
2023-01-17T17:12:59.820Z,85.47
2023-01-17T17:15:18.015Z,85.51
2023-01-17T17:17:35.373Z,85.60
2023-01-17T17:19:52.349Z,85.82
2023-01-17T17:22:09.300Z,85.75
2023-01-17T17:24:26.595Z,85.39
2023-01-17T17:26:43.667Z,85.62
2023-01-17T17:29:01.566Z,85.27
2023-01-17T17:31:19.692Z,85.85
2023-01-17T17:33:37.092Z,85.96
2023-01-17T17:35:54.444Z,86.01
2023-01-17T17:38:11.849Z,86.20
2023-01-17T17:40:28.927Z,85.82
2023-01-17T17:42:46.033Z,86.30
2023-01-17T17:45:04.005Z,86.38
2023-01-17T17:47:22.314Z,86.37
2023-01-17T17:49:39.463Z,86.60
2023-01-17T17:51:56.978Z,86.65
2023-01-17T17:54:14.049Z,86.54
2023-01-17T17:56:32.516Z,86.39
2023-01-17T17:58:49.868Z,86.48
2023-01-17T18:01:08.034Z,86.67
2023-01-17T18:03:24.984Z,86.20
2023-01-17T18:05:42.041Z,86.74
2023-01-17T18:07:59.342Z,86.85
2023-01-17T18:10:16.555Z,87.23
2023-01-17T18:12:33.674Z,87.25
2023-01-17T18:14:50.684Z,87.20
2023-01-17T18:17:08.828Z,87.19
2023-01-17T18:19:25.856Z,87.32
2023-01-17T18:21:42.940Z,86.80
2023-01-17T18:24:00.397Z,87.27
2023-01-17T18:26:17.353Z,86.90
2023-01-17T18:28:35.569Z,87.05
2023-01-17T18:30:52.644Z,87.70
2023-01-17T18:33:09.798Z,87.28
2023-01-17T18:35:26.935Z,87.27
2023-01-17T18:37:44.015Z,87.46
2023-01-17T18:40:01.070Z,87.38
2023-01-17T18:42:18.527Z,86.97
2023-01-17T18:44:35.889Z,87.26
2023-01-17T18:46:53.209Z,87.53
2023-01-17T18:49:10.212Z,87.58
2023-01-17T18:51:27.288Z,87.68
2023-01-17T18:53:45.621Z,87.53
2023-01-17T18:56:12.265Z,87.64
2023-01-17T18:58:29.583Z,87.59
2023-01-17T19:00:47.045Z,87.67
2023-01-17T19:03:04.393Z,87.80
2023-01-17T19:05:21.345Z,87.83
2023-01-17T19:07:38.446Z,87.91
2023-01-17T19:09:55.673Z,87.77
2023-01-17T19:12:13.074Z,87.71
2023-01-17T19:14:30.065Z,87.63
2023-01-17T19:16:50.072Z,87.94
2023-01-17T19:19:06.976Z,88.02
2023-01-17T19:21:27.162Z,87.99
2023-01-17T19:23:44.184Z,88.04
2023-01-17T19:26:01.267Z,87.86
2023-01-17T19:28:18.771Z,88.01
2023-01-17T19:30:35.859Z,88.30
2023-01-17T19:32:53.997Z,88.09
2023-01-17T19:35:11.369Z,88.66
2023-01-17T19:37:28.559Z,88.78
2023-01-17T19:39:46.588Z,88.68
2023-01-17T19:42:03.617Z,89.03
2023-01-17T19:44:21.034Z,88.66
2023-01-17T19:46:39.333Z,88.73
2023-01-17T19:48:56.650Z,88.92
2023-01-17T19:51:13.894Z,88.65
2023-01-17T19:53:33.637Z,89.25
2023-01-17T19:55:51.065Z,89.42
2023-01-17T19:58:08.434Z,89.31
2023-01-17T20:00:30.044Z,89.31
2023-01-17T20:02:47.429Z,89.86
2023-01-17T20:05:04.804Z,89.82
2023-01-17T20:07:24.601Z,89.59
2023-01-17T20:09:42.939Z,89.66
2023-01-17T20:12:00.323Z,89.43
2023-01-17T20:14:17.699Z,89.68
2023-01-17T20:16:34.847Z,89.14
2023-01-17T20:18:51.985Z,89.63
2023-01-17T20:21:08.986Z,89.70
2023-01-17T20:23:25.911Z,89.38
2023-01-17T20:25:44.932Z,89.56
2023-01-17T20:28:02.536Z,89.97
2023-01-17T20:30:20.818Z,89.72
2023-01-17T20:32:37.868Z,90.18
2023-01-17T20:34:55.055Z,89.59
2023-01-17T20:37:15.785Z,89.93
2023-01-17T20:39:32.885Z,89.99
2023-01-17T20:41:50.191Z,90.54
2023-01-17T20:44:07.528Z,90.51
2023-01-17T20:46:29.069Z,90.21
2023-01-17T20:48:47.310Z,90.37
2023-01-17T20:51:04.614Z,91.01
2023-01-17T20:53:21.583Z,90.72
2023-01-17T20:55:38.636Z,90.79
2023-01-17T20:57:55.912Z,90.51
2023-01-17T21:00:13.586Z,90.74
2023-01-17T21:02:31.821Z,90.51
2023-01-17T21:04:50.018Z,90.81
2023-01-17T21:07:07.010Z,90.67
2023-01-17T21:09:26.077Z,90.52
2023-01-17T21:11:45.882Z,90.52
2023-01-17T21:14:03.258Z,90.61
2023-01-17T21:16:20.947Z,90.25
2023-01-17T21:18:37.970Z,90.55
2023-01-17T21:20:54.924Z,90.73
2023-01-17T21:23:12.423Z,90.28
2023-01-17T21:25:29.674Z,90.30
2023-01-17T21:27:46.923Z,90.91
2023-01-17T21:30:03.893Z,90.77
2023-01-17T21:32:21.145Z,90.38
2023-01-17T21:34:38.193Z,90.36
2023-01-17T21:36:55.388Z,90.45
2023-01-17T21:39:14.063Z,90.40
2023-01-17T21:41:32.154Z,90.10
2023-01-17T21:43:49.208Z,90.06
2023-01-17T21:46:06.379Z,90.05
2023-01-17T21:48:23.759Z,89.93
2023-01-17T21:50:41.026Z,89.69
2023-01-17T21:52:58.225Z,89.76
2023-01-17T21:55:15.306Z,89.78
2023-01-17T21:57:32.461Z,89.80
2023-01-17T21:59:49.807Z,89.58
2023-01-17T22:02:08.160Z,89.71
2023-01-17T22:04:27.378Z,89.79
2023-01-17T22:06:44.487Z,89.37
2023-01-17T22:09:02.027Z,89.31
2023-01-17T22:11:19.002Z,89.17
2023-01-17T22:13:36.418Z,89.44
2023-01-17T22:15:53.792Z,88.83
2023-01-17T22:18:11.410Z,89.33
2023-01-17T22:20:28.370Z,89.14
2023-01-17T22:22:48.163Z,88.98
2023-01-17T22:25:05.434Z,89.66
2023-01-17T22:27:25.036Z,89.33
2023-01-17T22:29:42.136Z,89.48
2023-01-17T22:31:59.620Z,88.99
2023-01-17T22:34:16.926Z,89.06
2023-01-17T22:36:34.429Z,89.13
2023-01-17T22:38:51.629Z,89.21
2023-01-17T22:41:08.960Z,88.40
2023-01-17T22:43:26.133Z,88.61
2023-01-17T22:45:43.277Z,88.70
2023-01-17T22:48:00.594Z,88.44
2023-01-17T22:50:17.747Z,88.98
2023-01-17T22:52:34.689Z,88.60
2023-01-17T22:54:52.923Z,88.81
2023-01-17T22:57:09.910Z,89.10
2023-01-17T22:59:27.037Z,88.72
2023-01-17T23:01:44.062Z,88.80
2023-01-17T23:04:01.442Z,88.75
2023-01-17T23:06:21.510Z,89.02
2023-01-17T23:08:38.729Z,88.46
2023-01-17T23:10:55.781Z,88.94
2023-01-17T23:13:12.884Z,88.75
2023-01-17T23:15:30.323Z,88.80
2023-01-17T23:17:48.404Z,88.89
2023-01-17T23:20:05.792Z,88.81
2023-01-17T23:22:22.976Z,88.62
2023-01-17T23:24:39.965Z,88.96
2023-01-17T23:26:57.528Z,89.18
2023-01-17T23:29:14.867Z,88.86
2023-01-17T23:31:33.474Z,89.18
2023-01-17T23:33:50.806Z,89.30
2023-01-17T23:36:08.226Z,89.36
2023-01-17T23:38:25.698Z,88.70
2023-01-17T23:40:42.740Z,89.39
2023-01-17T23:42:59.859Z,89.17
2023-01-17T23:45:16.814Z,89.01
2023-01-17T23:47:35.298Z,89.35
2023-01-17T23:49:52.566Z,89.34
2023-01-17T23:52:09.549Z,89.26
2023-01-17T23:54:26.838Z,89.21
2023-01-17T23:56:44.886Z,89.53
2023-01-17T23:59:01.992Z,89.23
